Time;durP1;ratioP1;P1;durP2;ratioP2;P2;SDS_P1;SDS_P2;PMS_P1;PMS_P2;Temp;Humidity;BMP_temperature;BMP_pressure;BME280_temperature;BME280_humidity;BME280_pressure;Samples;Min_cycle;Max_cycle;Signal;HPM_P1;HPM_P2
2022/01/15 00:01:29;;;;;;;2.60;2.40;;;;;;;;;;5070582;28;20703;-54
2022/01/15 00:03:55;;;;;;;2.33;2.05;;;;;;;;;;5066049;28;20190;-54
2022/01/15 00:06:21;;;;;;;2.25;2.05;;;;;;;;;;5069081;28;20170;-54
2022/01/15 00:08:47;;;;;;;2.50;2.30;;;;;;;;;;5070450;28;20193;-54
2022/01/15 00:11:13;;;;;;;2.58;2.30;;;;;;;;;;5064985;28;20187;-55
2022/01/15 00:13:41;;;;;;;2.58;2.38;;;;;;;;;;5067060;28;20209;-55
2022/01/15 00:16:24;;;;;;;4.68;2.40;;;;;;;;;;5063156;28;20190;-55
2022/01/15 00:19:05;;;;;;;1.85;1.75;;;;;;;;;;5058179;28;20269;-55
2022/01/15 00:21:31;;;;;;;2.22;2.03;;;;;;;;;;5068722;28;20265;-55
2022/01/15 00:23:57;;;;;;;2.67;2.47;;;;;;;;;;5063782;28;20183;-55
2022/01/15 00:26:23;;;;;;;2.35;2.15;;;;;;;;;;5066487;28;20644;-55
2022/01/15 00:28:49;;;;;;;2.08;1.95;;;;;;;;;;5070024;28;20197;-55
2022/01/15 00:31:15;;;;;;;2.38;2.17;;;;;;;;;;5067452;28;20187;-55
2022/01/15 00:33:41;;;;;;;2.17;2.08;;;;;;;;;;5060190;28;20218;-55
2022/01/15 00:36:07;;;;;;;2.90;1.98;;;;;;;;;;5065497;28;20185;-54
2022/01/15 00:38:33;;;;;;;2.63;2.42;;;;;;;;;;5063263;28;20255;-54
2022/01/15 00:40:59;;;;;;;2.40;2.20;;;;;;;;;;5066896;28;20174;-54
2022/01/15 00:43:25;;;;;;;2.35;2.15;;;;;;;;;;5070130;28;20213;-54
2022/01/15 00:45:51;;;;;;;2.10;1.90;;;;;;;;;;5065282;28;20179;-54
2022/01/15 00:48:17;;;;;;;1.90;1.80;;;;;;;;;;5057837;28;20170;-55
2022/01/15 00:50:43;;;;;;;2.20;2.00;;;;;;;;;;5068920;28;20190;-55
2022/01/15 00:53:09;;;;;;;2.67;2.05;;;;;;;;;;5061355;28;20202;-55
2022/01/15 00:55:36;;;;;;;2.03;1.92;;;;;;;;;;5062007;28;20179;-55
2022/01/15 00:58:02;;;;;;;2.33;1.92;;;;;;;;;;5070770;28;20569;-55
2022/01/15 01:00:28;;;;;;;2.30;2.10;;;;;;;;;;5064815;28;20235;-54
2022/01/15 01:02:54;;;;;;;2.28;2.00;;;;;;;;;;5069761;28;20234;-54
2022/01/15 01:05:21;;;;;;;2.13;2.03;;;;;;;;;;5067230;28;20620;-54
2022/01/15 01:07:47;;;;;;;1.83;1.73;;;;;;;;;;5071761;28;20233;-54
2022/01/15 01:10:48;;;;;;;2.05;1.88;;;;;;;;;;5060109;28;20183;-54
2022/01/15 01:23:36;;;;;;;1.90;1.80;;;;;;;;;;5057637;28;20175;-54
2022/01/15 01:26:24;;;;;;;2.35;2.15;;;;;;;;;;5064740;28;20748;-54
2022/01/15 01:28:59;;;;;;;2.03;1.83;;;;;;;;;;5057954;28;20190;-55
2022/01/15 01:31:34;;;;;;;2.40;1.90;;;;;;;;;;5057492;28;20203;-54
2022/01/15 01:34:07;;;;;;;2.00;1.90;;;;;;;;;;5060005;28;20202;-56
2022/01/15 01:36:48;;;;;;;1.60;1.50;;;;;;;;;;5066002;28;20539;-55
2022/01/15 01:39:18;;;;;;;2.30;2.10;;;;;;;;;;5075085;28;20888;-54
2022/01/15 01:42:03;;;;;;;1.90;1.80;;;;;;;;;;5066754;28;20182;-55
2022/01/15 01:44:29;;;;;;;2.20;2.00;;;;;;;;;;5070505;28;20560;-55
2022/01/15 01:47:03;;;;;;;2.20;2.00;;;;;;;;;;5067388;28;20281;-54
2022/01/15 01:49:29;;;;;;;2.30;2.10;;;;;;;;;;5062713;28;20178;-55
2022/01/15 01:51:55;;;;;;;1.85;1.75;;;;;;;;;;5062353;28;20192;-55
2022/01/15 01:54:21;;;;;;;1.80;1.70;;;;;;;;;;5067646;28;20179;-55
2022/01/15 01:56:48;;;;;;;2.15;1.90;;;;;;;;;;5072288;28;20568;-55
2022/01/15 01:59:16;;;;;;;2.05;1.85;;;;;;;;;;5065001;28;20175;-55
2022/01/15 02:01:42;;;;;;;2.42;2.22;;;;;;;;;;5070895;28;20214;-55
2022/01/15 02:04:08;;;;;;;2.10;2.00;;;;;;;;;;5064599;28;20186;-55
2022/01/15 02:06:35;;;;;;;1.70;1.60;;;;;;;;;;5065035;28;20233;-55
2022/01/15 02:09:02;;;;;;;2.22;2.00;;;;;;;;;;5063166;28;20244;-55
2022/01/15 02:11:28;;;;;;;2.20;2.00;;;;;;;;;;5065891;28;20185;-55
2022/01/15 02:13:54;;;;;;;1.85;1.75;;;;;;;;;;5068967;28;20194;-55
2022/01/15 02:16:20;;;;;;;1.95;1.77;;;;;;;;;;5060764;28;20223;-55
2022/01/15 02:18:46;;;;;;;2.03;1.92;;;;;;;;;;5066584;28;20190;-55
2022/01/15 02:23:43;;;;;;;1.88;1.77;;;;;;;;;;5066855;28;20603;-54
2022/01/15 02:26:10;;;;;;;2.35;2.15;;;;;;;;;;5057990;28;20620;-55
2022/01/15 02:28:41;;;;;;;2.13;1.92;;;;;;;;;;5063861;28;20228;-55
2022/01/15 02:31:08;;;;;;;2.25;2.00;;;;;;;;;;5068874;28;20202;-54
2022/01/15 02:33:35;;;;;;;1.90;1.60;;;;;;;;;;5062936;28;20206;-54
2022/01/15 02:36:02;;;;;;;1.95;1.75;;;;;;;;;;5061387;28;20175;-54
2022/01/15 02:38:28;;;;;;;1.83;1.73;;;;;;;;;;5064171;28;20170;-55
2022/01/15 02:40:54;;;;;;;1.75;1.65;;;;;;;;;;5067074;28;20569;-55
2022/01/15 02:43:27;;;;;;;1.95;1.85;;;;;;;;;;5066744;28;20186;-54
2022/01/15 02:45:57;;;;;;;1.88;1.70;;;;;;;;;;5063282;28;20545;-55
2022/01/15 02:48:28;;;;;;;2.00;1.90;;;;;;;;;;5060569;28;20385;-55
2022/01/15 02:50:54;;;;;;;2.00;1.90;;;;;;;;;;5064012;28;20683;-55
2022/01/15 02:53:21;;;;;;;2.00;1.90;;;;;;;;;;5069459;28;20210;-55
2022/01/15 02:55:48;;;;;;;2.10;1.73;;;;;;;;;;5065044;28;20193;-55
2022/01/15 02:58:15;;;;;;;1.80;1.70;;;;;;;;;;5072241;28;20223;-55
2022/01/15 03:00:41;;;;;;;1.88;1.77;;;;;;;;;;5066246;28;20281;-55
2022/01/15 03:03:07;;;;;;;2.10;2.00;;;;;;;;;;5065509;28;20549;-55
2022/01/15 03:05:33;;;;;;;1.90;1.80;;;;;;;;;;5064032;28;20221;-55
2022/01/15 03:07:59;;;;;;;1.90;1.80;;;;;;;;;;5067586;28;20178;-55
2022/01/15 03:10:25;;;;;;;1.80;1.70;;;;;;;;;;5072016;28;20197;-55
2022/01/15 03:12:54;;;;;;;1.80;1.70;;;;;;;;;;5060181;28;20199;-55
2022/01/15 03:15:20;;;;;;;1.73;1.60;;;;;;;;;;5066577;28;20174;-55
2022/01/15 03:17:47;;;;;;;1.92;1.83;;;;;;;;;;5070052;28;20182;-55
2022/01/15 03:20:14;;;;;;;1.80;1.70;;;;;;;;;;5063999;28;20207;-55
2022/01/15 03:22:40;;;;;;;2.80;1.90;;;;;;;;;;5072778;28;20190;-55
2022/01/15 03:25:07;;;;;;;1.80;1.70;;;;;;;;;;5069097;28;20489;-55
2022/01/15 03:27:32;;;;;;;1.85;1.75;;;;;;;;;;5072892;28;20183;-55
2022/01/15 03:29:58;;;;;;;1.95;1.83;;;;;;;;;;5061245;28;20209;-54
2022/01/15 03:32:24;;;;;;;1.70;1.60;;;;;;;;;;5066179;28;20579;-54
2022/01/15 03:34:51;;;;;;;2.67;1.60;;;;;;;;;;5066080;28;20178;-54
2022/01/15 03:37:17;;;;;;;1.85;1.75;;;;;;;;;;5063830;28;20180;-54
2022/01/15 03:39:45;;;;;;;1.85;1.75;;;;;;;;;;5068880;28;20570;-55
2022/01/15 03:42:12;;;;;;;1.83;1.73;;;;;;;;;;5060327;28;20201;-55
2022/01/15 03:44:41;;;;;;;1.80;1.70;;;;;;;;;;5068103;28;20181;-55
2022/01/15 03:47:07;;;;;;;2.00;1.90;;;;;;;;;;5065848;28;20182;-55
2022/01/15 03:49:33;;;;;;;1.90;1.80;;;;;;;;;;5065608;28;20186;-55
2022/01/15 03:51:59;;;;;;;1.60;1.50;;;;;;;;;;5061861;28;20207;-55
2022/01/15 03:54:25;;;;;;;1.60;1.50;;;;;;;;;;5067424;28;20239;-55
2022/01/15 03:56:51;;;;;;;1.88;1.77;;;;;;;;;;5067185;28;20233;-55
2022/01/15 03:59:17;;;;;;;2.03;1.85;;;;;;;;;;5066285;28;20637;-55
2022/01/15 04:01:43;;;;;;;1.92;1.83;;;;;;;;;;5069857;28;20207;-54
2022/01/15 04:04:10;;;;;;;1.77;1.67;;;;;;;;;;5061853;28;20224;-55
2022/01/15 04:06:35;;;;;;;1.77;1.67;;;;;;;;;;5066306;28;20291;-55
2022/01/15 04:09:01;;;;;;;1.70;1.60;;;;;;;;;;5072266;28;20257;-55
2022/01/15 04:11:28;;;;;;;2.00;1.75;;;;;;;;;;5061521;28;20193;-55
2022/01/15 04:13:54;;;;;;;1.45;1.35;;;;;;;;;;5065798;28;20199;-54
2022/01/15 04:16:20;;;;;;;1.60;1.50;;;;;;;;;;5061583;28;20449;-55
2022/01/15 04:18:46;;;;;;;1.80;1.70;;;;;;;;;;5067731;28;20171;-55
2022/01/15 04:21:14;;;;;;;1.50;1.40;;;;;;;;;;5059693;28;20236;-55
2022/01/15 04:23:40;;;;;;;1.50;1.40;;;;;;;;;;5060156;28;20183;-54
2022/01/15 04:26:06;;;;;;;1.95;1.73;;;;;;;;;;5065290;28;20573;-55
2022/01/15 04:28:33;;;;;;;1.70;1.60;;;;;;;;;;5067310;28;20175;-55
2022/01/15 04:31:05;;;;;;;1.67;1.58;;;;;;;;;;5067370;28;20307;-54
2022/01/15 04:33:35;;;;;;;1.88;1.77;;;;;;;;;;5068963;28;20289;-55
2022/01/15 04:36:01;;;;;;;1.67;1.58;;;;;;;;;;5062535;28;20217;-55
2022/01/15 04:38:28;;;;;;;1.92;1.60;;;;;;;;;;5059203;28;20179;-55
2022/01/15 04:40:54;;;;;;;1.95;1.67;;;;;;;;;;5061744;28;20444;-55
2022/01/15 04:43:20;;;;;;;2.78;1.50;;;;;;;;;;5074853;28;20228;-55
2022/01/15 04:45:46;;;;;;;2.58;1.63;;;;;;;;;;5059187;28;20214;-54
2022/01/15 04:48:12;;;;;;;1.85;1.70;;;;;;;;;;5071015;28;20197;-54
2022/01/15 04:50:38;;;;;;;1.80;1.70;;;;;;;;;;5072598;28;20182;-55
2022/01/15 04:53:05;;;;;;;2.35;1.48;;;;;;;;;;5072279;28;20194;-55
2022/01/15 04:55:31;;;;;;;1.70;1.60;;;;;;;;;;5059212;28;20286;-55
2022/01/15 04:57:57;;;;;;;1.40;1.30;;;;;;;;;;5071406;28;20439;-55
2022/01/15 05:00:23;;;;;;;1.92;1.83;;;;;;;;;;5065133;28;20240;-55
2022/01/15 05:02:49;;;;;;;3.42;1.80;;;;;;;;;;5072886;28;20197;-55
2022/01/15 05:05:15;;;;;;;2.10;1.90;;;;;;;;;;5065329;28;20663;-55
2022/01/15 05:07:42;;;;;;;4.20;2.10;;;;;;;;;;5066550;28;20288;-55
2022/01/15 05:10:09;;;;;;;4.72;2.33;;;;;;;;;;5069648;28;20248;-55
2022/01/15 05:12:44;;;;;;;5.18;2.10;;;;;;;;;;5063961;28;20195;-55
2022/01/15 05:15:11;;;;;;;2.70;2.35;;;;;;;;;;5064097;28;20190;-54
2022/01/15 05:17:37;;;;;;;3.78;1.90;;;;;;;;;;5071488;28;20473;-54
2022/01/15 05:20:04;;;;;;;6.45;2.90;;;;;;;;;;5068114;28;20207;-55
2022/01/15 05:22:30;;;;;;;5.68;2.38;;;;;;;;;;5066951;28;20243;-55
2022/01/15 05:24:56;;;;;;;5.82;2.40;;;;;;;;;;5071379;28;20289;-55
2022/01/15 05:27:22;;;;;;;4.60;2.58;;;;;;;;;;5073603;28;20262;-55
2022/01/15 05:29:48;;;;;;;3.72;2.20;;;;;;;;;;5073082;28;20232;-55
2022/01/15 05:32:14;;;;;;;4.70;2.25;;;;;;;;;;5072090;28;20454;-54
2022/01/15 05:34:40;;;;;;;4.45;2.42;;;;;;;;;;5067412;28;20228;-55
2022/01/15 05:37:06;;;;;;;3.88;2.20;;;;;;;;;;5070218;28;20205;-55
2022/01/15 05:39:32;;;;;;;6.05;2.25;;;;;;;;;;5072513;28;20179;-55
2022/01/15 05:41:58;;;;;;;3.80;2.13;;;;;;;;;;5068920;28;20190;-55
2022/01/15 05:44:24;;;;;;;6.05;2.53;;;;;;;;;;5063938;28;20171;-54
2022/01/15 05:46:50;;;;;;;3.53;2.22;;;;;;;;;;5064039;28;20558;-54
2022/01/15 05:49:16;;;;;;;5.00;2.40;;;;;;;;;;5061928;28;20185;-54
2022/01/15 05:51:42;;;;;;;3.70;2.15;;;;;;;;;;5066420;28;20202;-54
2022/01/15 05:54:11;;;;;;;4.43;2.63;;;;;;;;;;5073249;28;20207;-54
2022/01/15 05:56:40;;;;;;;5.65;2.65;;;;;;;;;;5059705;28;20180;-54
2022/01/15 05:59:07;;;;;;;3.03;2.30;;;;;;;;;;5061698;28;20472;-54
2022/01/15 06:01:33;;;;;;;7.55;2.50;;;;;;;;;;5072363;28;20201;-54
2022/01/15 06:03:59;;;;;;;4.63;2.55;;;;;;;;;;5072640;28;20189;-54
2022/01/15 06:06:25;;;;;;;8.27;2.40;;;;;;;;;;5071328;28;20210;-54
2022/01/15 06:08:51;;;;;;;4.75;2.30;;;;;;;;;;5073645;28;20189;-54
2022/01/15 06:11:18;;;;;;;5.20;2.50;;;;;;;;;;5074268;28;20178;-54
2022/01/15 06:13:47;;;;;;;5.10;2.30;;;;;;;;;;5069353;28;20202;-54
2022/01/15 06:16:14;;;;;;;4.47;2.10;;;;;;;;;;5069540;28;20496;-54
2022/01/15 06:18:40;;;;;;;4.25;1.98;;;;;;;;;;5066834;28;20669;-54
2022/01/15 06:21:06;;;;;;;2.83;2.03;;;;;;;;;;5068814;28;20210;-54
2022/01/15 06:23:32;;;;;;;7.97;1.60;;;;;;;;;;5064900;28;20183;-54
2022/01/15 06:25:58;;;;;;;4.93;2.20;;;;;;;;;;5066867;28;20261;-54
2022/01/15 06:28:24;;;;;;;2.67;1.95;;;;;;;;;;5073697;28;20546;-54
2022/01/15 06:30:50;;;;;;;3.17;1.70;;;;;;;;;;5070886;28;20198;-54
2022/01/15 06:33:16;;;;;;;3.28;1.80;;;;;;;;;;5074058;28;20604;-54
2022/01/15 06:35:42;;;;;;;3.95;1.75;;;;;;;;;;5069527;28;20170;-54
2022/01/15 06:38:08;;;;;;;4.82;1.65;;;;;;;;;;5061501;28;20189;-53
2022/01/15 06:40:34;;;;;;;4.28;1.85;;;;;;;;;;5062666;28;20179;-54
2022/01/15 06:43:01;;;;;;;3.85;1.83;;;;;;;;;;5072485;28;20252;-53
2022/01/15 06:45:30;;;;;;;1.85;1.60;;;;;;;;;;5069529;28;20427;-54
2022/01/15 06:47:57;;;;;;;3.28;1.70;;;;;;;;;;5063215;28;20190;-54
2022/01/15 06:50:24;;;;;;;2.50;2.15;;;;;;;;;;5063405;28;20182;-54
2022/01/15 06:52:50;;;;;;;1.75;1.65;;;;;;;;;;5073674;28;20210;-54
2022/01/15 06:55:16;;;;;;;1.92;1.65;;;;;;;;;;5071917;28;20183;-54
2022/01/15 06:57:43;;;;;;;2.08;1.45;;;;;;;;;;5065981;28;20183;-54
2022/01/15 07:00:09;;;;;;;3.58;1.77;;;;;;;;;;5068806;28;20209;-54
2022/01/15 07:02:35;;;;;;;4.30;1.80;;;;;;;;;;5066540;28;20240;-54
2022/01/15 07:05:02;;;;;;;2.42;1.52;;;;;;;;;;5068037;28;20222;-51
2022/01/15 07:07:28;;;;;;;10.10;3.35;;;;;;;;;;5059692;28;20194;-51
2022/01/15 07:09:54;;;;;;;11.98;5.55;;;;;;;;;;5070482;28;20190;-54
2022/01/15 07:12:20;;;;;;;11.05;6.07;;;;;;;;;;5065159;28;20191;-51
2022/01/15 07:14:46;;;;;;;9.30;4.82;;;;;;;;;;5070920;28;20270;-54
2022/01/15 07:17:12;;;;;;;7.32;3.80;;;;;;;;;;5065380;28;20249;-52
2022/01/15 07:19:38;;;;;;;7.50;3.10;;;;;;;;;;5072171;28;20196;-50
2022/01/15 07:22:04;;;;;;;12.02;3.40;;;;;;;;;;5062666;28;20183;-52
2022/01/15 07:24:31;;;;;;;7.03;2.95;;;;;;;;;;5063488;28;20197;-52
2022/01/15 07:26:57;;;;;;;9.13;2.40;;;;;;;;;;5071142;28;20182;-50
2022/01/15 07:29:24;;;;;;;6.13;2.97;;;;;;;;;;5071242;28;20446;-52
2022/01/15 07:31:52;;;;;;;9.70;2.50;;;;;;;;;;5064269;28;20181;-50
2022/01/15 07:34:20;;;;;;;4.88;2.80;;;;;;;;;;5068914;28;20241;-51
2022/01/15 07:36:50;;;;;;;6.05;2.75;;;;;;;;;;5063500;28;20513;-52
2022/01/15 07:39:16;;;;;;;7.38;2.38;;;;;;;;;;5060426;28;20179;-57
2022/01/15 07:41:42;;;;;;;4.40;2.40;;;;;;;;;;5061494;28;20193;-50
2022/01/15 07:44:09;;;;;;;6.30;2.28;;;;;;;;;;5072608;28;20170;-49
2022/01/15 07:46:35;;;;;;;5.78;2.70;;;;;;;;;;5064241;28;20194;-51
2022/01/15 07:49:01;;;;;;;8.80;2.70;;;;;;;;;;5058020;28;20196;-51
2022/01/15 07:51:27;;;;;;;6.53;2.60;;;;;;;;;;5067180;28;20300;-51
2022/01/15 07:53:53;;;;;;;3.65;2.10;;;;;;;;;;5072175;28;20630;-51
2022/01/15 07:56:19;;;;;;;5.47;2.67;;;;;;;;;;5058874;28;20198;-51
2022/01/15 07:58:46;;;;;;;8.32;2.30;;;;;;;;;;5063276;28;20557;-53
2022/01/15 08:01:12;;;;;;;7.78;2.83;;;;;;;;;;5057499;28;20182;-50
2022/01/15 08:03:38;;;;;;;7.22;2.50;;;;;;;;;;5070737;28;20190;-52
2022/01/15 08:06:04;;;;;;;11.23;2.63;;;;;;;;;;5060779;28;20186;-53
2022/01/15 08:08:30;;;;;;;4.85;2.25;;;;;;;;;;5063724;28;20213;-52
2022/01/15 08:10:56;;;;;;;5.60;2.05;;;;;;;;;;5062159;28;20515;-52
2022/01/15 08:13:22;;;;;;;6.20;2.00;;;;;;;;;;5072759;28;20197;-50
2022/01/15 08:15:50;;;;;;;2.97;1.75;;;;;;;;;;5056554;28;20192;-51
2022/01/15 08:18:18;;;;;;;5.63;2.15;;;;;;;;;;5071591;28;20737;-52
2022/01/15 08:20:45;;;;;;;3.65;2.08;;;;;;;;;;5061168;28;20222;-52
2022/01/15 08:23:11;;;;;;;5.03;1.88;;;;;;;;;;5072542;28;20179;-51
2022/01/15 08:25:37;;;;;;;4.38;2.17;;;;;;;;;;5066799;28;20190;-51
2022/01/15 08:28:03;;;;;;;2.75;1.80;;;;;;;;;;5073589;28;20253;-52
2022/01/15 08:30:29;;;;;;;5.35;2.33;;;;;;;;;;5067944;28;20197;-50
2022/01/15 08:32:55;;;;;;;5.60;1.92;;;;;;;;;;5072391;28;20213;-52
2022/01/15 08:35:21;;;;;;;2.80;1.75;;;;;;;;;;5074846;28;20619;-50
2022/01/15 08:37:48;;;;;;;3.45;1.83;;;;;;;;;;5070263;28;20189;-49
2022/01/15 08:40:15;;;;;;;5.80;2.33;;;;;;;;;;5073867;28;20171;-50
2022/01/15 08:42:41;;;;;;;5.72;1.85;;;;;;;;;;5068562;28;20194;-50
2022/01/15 08:45:08;;;;;;;3.55;2.08;;;;;;;;;;5071979;28;20270;-51
2022/01/15 08:47:34;;;;;;;3.80;1.98;;;;;;;;;;5069037;28;20206;-48
2022/01/15 08:52:35;;;;;;;3.65;1.88;;;;;;;;;;5151413;23;20235;-44
2022/01/15 08:55:02;;;;;;;4.28;2.20;;;;;;;;;;5049445;28;20235;-45
2022/01/15 08:57:28;;;;;;;3.60;2.13;;;;;;;;;;5045795;28;20304;-45
2022/01/15 08:59:54;;;;;;;4.32;2.20;;;;;;;;;;5043857;28;20214;-44
2022/01/15 09:02:20;;;;;;;3.30;1.88;;;;;;;;;;5052278;28;20175;-44
2022/01/15 09:04:47;;;;;;;6.82;2.28;;;;;;;;;;5051869;28;20171;-45
2022/01/15 09:07:13;;;;;;;4.13;2.20;;;;;;;;;;5046444;28;20172;-44
2022/01/15 09:09:39;;;;;;;4.10;2.30;;;;;;;;;;5052399;28;20253;-44
2022/01/15 09:12:05;;;;;;;4.00;2.03;;;;;;;;;;5052273;28;20200;-44
2022/01/15 09:14:31;;;;;;;6.07;2.03;;;;;;;;;;5052464;28;20596;-44
2022/01/15 09:16:57;;;;;;;5.22;2.10;;;;;;;;;;5045472;28;20175;-44
2022/01/15 09:19:23;;;;;;;4.57;1.92;;;;;;;;;;5051714;28;20179;-45
2022/01/15 09:21:49;;;;;;;4.35;2.00;;;;;;;;;;5046387;28;20182;-44
2022/01/15 09:24:15;;;;;;;2.97;1.80;;;;;;;;;;5053423;28;20454;-44
2022/01/15 09:32:05;;;;;;;2.78;1.98;;;;;;;;;;5050745;28;20325;-44
2022/01/15 09:34:32;;;;;;;5.05;1.90;;;;;;;;;;5046586;28;20456;-44
2022/01/15 09:36:58;;;;;;;2.85;1.73;;;;;;;;;;5044923;28;20860;-44
2022/01/15 09:39:24;;;;;;;3.00;1.77;;;;;;;;;;5052374;28;20221;-44
2022/01/15 09:41:53;;;;;;;1.95;1.70;;;;;;;;;;5051213;28;20233;-44
2022/01/15 09:44:20;;;;;;;2.97;1.70;;;;;;;;;;5052996;28;20289;-44
2022/01/15 09:46:46;;;;;;;1.77;1.58;;;;;;;;;;5049620;28;20197;-45
2022/01/15 09:49:14;;;;;;;2.25;1.67;;;;;;;;;;5048434;28;20570;-44
2022/01/15 09:51:40;;;;;;;3.97;2.00;;;;;;;;;;5044874;28;20597;-44
2022/01/15 09:54:06;;;;;;;1.80;1.58;;;;;;;;;;5050177;28;20289;-44
2022/01/15 09:56:32;;;;;;;3.35;1.55;;;;;;;;;;5052606;28;20241;-44
2022/01/15 09:59:00;;;;;;;2.22;1.48;;;;;;;;;;5046321;28;20490;-44
2022/01/15 10:01:29;;;;;;;3.85;2.10;;;;;;;;;;5052836;28;20630;-44
2022/01/15 10:03:56;;;;;;;3.50;1.75;;;;;;;;;;5049740;28;20433;-44
2022/01/15 10:06:22;;;;;;;3.35;1.80;;;;;;;;;;5047965;28;20202;-44
2022/01/15 10:09:00;;;;;;;3.30;1.73;;;;;;;;;;5053550;28;20207;-44
2022/01/15 10:11:48;;;;;;;1.70;1.60;;;;;;;;;;5046993;28;20601;-44
2022/01/15 10:14:28;;;;;;;1.95;1.58;;;;;;;;;;5048059;28;20219;-44
2022/01/15 10:16:55;;;;;;;2.70;1.80;;;;;;;;;;5043934;28;20190;-45
2022/01/15 10:19:27;;;;;;;3.55;2.00;;;;;;;;;;5053353;28;20172;-44
2022/01/15 10:22:08;;;;;;;2.80;2.05;;;;;;;;;;5042276;28;20184;-45
2022/01/15 10:24:35;;;;;;;2.30;1.60;;;;;;;;;;5038424;28;20206;-44
2022/01/15 10:27:19;;;;;;;1.85;1.75;;;;;;;;;;5045825;28;20180;-44
2022/01/15 10:29:56;;;;;;;2.45;1.77;;;;;;;;;;5040962;28;20187;-44
2022/01/15 10:32:23;;;;;;;2.13;1.75;;;;;;;;;;5047021;28;20257;-45
2022/01/15 10:34:49;;;;;;;2.65;1.60;;;;;;;;;;5046434;28;20183;-44
2022/01/15 10:37:17;;;;;;;3.22;1.88;;;;;;;;;;5049319;28;20187;-44
2022/01/15 10:39:59;;;;;;;3.35;1.70;;;;;;;;;;5048930;28;20187;-44
2022/01/15 10:42:25;;;;;;;2.20;1.63;;;;;;;;;;5048520;28;20175;-44
2022/01/15 10:44:52;;;;;;;2.22;1.65;;;;;;;;;;5042068;28;20440;-44
2022/01/15 10:47:19;;;;;;;2.92;1.80;;;;;;;;;;5043289;28;20206;-44
2022/01/15 10:49:46;;;;;;;1.52;1.40;;;;;;;;;;5045095;28;20194;-44
2022/01/15 10:52:14;;;;;;;1.65;1.45;;;;;;;;;;5043236;28;20207;-44
2022/01/15 10:54:51;;;;;;;2.55;1.58;;;;;;;;;;5041690;28;20184;-44
2022/01/15 10:57:19;;;;;;;3.42;1.70;;;;;;;;;;5050290;28;20179;-45
2022/01/15 11:00:02;;;;;;;2.55;1.48;;;;;;;;;;5037650;28;20172;-45
2022/01/15 11:02:28;;;;;;;2.05;1.60;;;;;;;;;;5036876;28;20213;-44
2022/01/15 11:04:54;;;;;;;1.58;1.30;;;;;;;;;;5050464;28;20178;-44
2022/01/15 11:07:20;;;;;;;2.08;1.40;;;;;;;;;;5051219;28;20627;-44
2022/01/15 11:09:48;;;;;;;2.58;1.45;;;;;;;;;;5048222;28;20603;-44
2022/01/15 11:12:14;;;;;;;2.53;1.70;;;;;;;;;;5041236;28;20203;-44
2022/01/15 11:14:40;;;;;;;2.75;1.42;;;;;;;;;;5035691;28;20188;-44
2022/01/15 11:17:07;;;;;;;1.88;1.50;;;;;;;;;;5050411;28;20228;-44
2022/01/15 11:19:34;;;;;;;1.75;1.65;;;;;;;;;;5046277;28;20184;-44
2022/01/15 11:22:01;;;;;;;2.60;1.67;;;;;;;;;;5035866;28;20176;-44
2022/01/15 11:24:27;;;;;;;2.28;1.42;;;;;;;;;;5045798;28;20182;-45
2022/01/15 11:26:55;;;;;;;2.15;1.50;;;;;;;;;;5049771;28;20191;-44
2022/01/15 11:29:25;;;;;;;1.40;1.30;;;;;;;;;;5044258;28;20229;-44
2022/01/15 11:31:53;;;;;;;1.80;1.48;;;;;;;;;;5045666;28;20187;-44
2022/01/15 11:34:23;;;;;;;1.45;1.33;;;;;;;;;;5043841;28;20313;-44
2022/01/15 11:36:49;;;;;;;2.53;1.80;;;;;;;;;;5036481;28;20454;-44
2022/01/15 11:39:19;;;;;;;2.28;1.60;;;;;;;;;;5044846;28;20562;-44
2022/01/15 11:41:48;;;;;;;1.52;1.42;;;;;;;;;;5040313;28;20191;-44
2022/01/15 11:44:15;;;;;;;1.90;1.30;;;;;;;;;;5032154;28;20854;-44
2022/01/15 11:46:41;;;;;;;1.77;1.50;;;;;;;;;;5050028;28;20248;-44
2022/01/15 11:49:26;;;;;;;1.92;1.35;;;;;;;;;;5041877;28;20187;-44
2022/01/15 11:51:52;;;;;;;1.75;1.40;;;;;;;;;;5045405;28;20287;-44
2022/01/15 11:54:18;;;;;;;1.42;1.33;;;;;;;;;;5033985;28;20213;-44
2022/01/15 11:56:46;;;;;;;2.58;1.70;;;;;;;;;;5040403;28;20183;-44
2022/01/15 11:59:24;;;;;;;2.45;1.50;;;;;;;;;;5049819;28;20171;-44
2022/01/15 12:01:51;;;;;;;1.75;1.58;;;;;;;;;;5048348;28;20179;-44
2022/01/15 12:04:23;;;;;;;1.35;1.15;;;;;;;;;;5050841;28;20521;-44
2022/01/15 12:07:07;;;;;;;1.70;1.58;;;;;;;;;;5040962;28;20297;-44
2022/01/15 12:09:38;;;;;;;1.77;1.40;;;;;;;;;;5048890;28;20236;-44
2022/01/15 12:12:31;;;;;;;1.77;1.38;;;;;;;;;;5051354;28;20198;-44
2022/01/15 12:14:57;;;;;;;1.58;1.48;;;;;;;;;;5045299;28;20171;-44
2022/01/15 12:17:27;;;;;;;2.22;1.67;;;;;;;;;;5045818;28;20164;-44
2022/01/15 12:19:54;;;;;;;1.92;1.35;;;;;;;;;;5037663;28;20239;-44
2022/01/15 12:22:40;;;;;;;1.33;1.23;;;;;;;;;;5039853;28;20179;-45
2022/01/15 12:25:07;;;;;;;2.00;1.33;;;;;;;;;;5043363;28;20214;-44
2022/01/15 12:27:34;;;;;;;1.40;1.00;;;;;;;;;;5039959;28;20183;-45
2022/01/15 12:30:00;;;;;;;1.38;1.27;;;;;;;;;;5045059;28;20183;-44
2022/01/15 12:32:29;;;;;;;1.75;1.50;;;;;;;;;;5038208;28;20648;-44
2022/01/15 12:34:56;;;;;;;2.08;1.48;;;;;;;;;;5049920;28;20290;-44
2022/01/15 12:37:22;;;;;;;1.20;1.10;;;;;;;;;;5049833;28;20175;-44
2022/01/15 12:39:49;;;;;;;1.60;1.30;;;;;;;;;;5051833;28;20168;-44
2022/01/15 12:42:17;;;;;;;3.15;1.48;;;;;;;;;;5048962;28;20167;-44
2022/01/15 12:44:53;;;;;;;2.22;1.60;;;;;;;;;;5034618;28;20518;-44
2022/01/15 12:47:19;;;;;;;1.30;1.17;;;;;;;;;;5043612;28;20179;-44
2022/01/15 12:49:48;;;;;;;2.08;1.30;;;;;;;;;;5042957;28;20257;-44
2022/01/15 12:52:21;;;;;;;2.13;1.38;;;;;;;;;;5045520;28;20205;-44
2022/01/15 12:54:47;;;;;;;1.52;1.38;;;;;;;;;;5042816;28;20180;-44
2022/01/15 12:57:14;;;;;;;1.98;1.38;;;;;;;;;;5047146;28;20443;-44
2022/01/15 12:59:40;;;;;;;1.42;1.10;;;;;;;;;;5037548;28;20188;-44
2022/01/15 13:02:06;;;;;;;1.40;1.30;;;;;;;;;;5047117;28;20187;-44
2022/01/15 13:04:33;;;;;;;1.92;1.17;;;;;;;;;;5043697;28;20451;-44
2022/01/15 13:07:00;;;;;;;2.03;1.27;;;;;;;;;;5049304;28;20201;-44
2022/01/15 13:09:39;;;;;;;1.45;1.27;;;;;;;;;;5048544;28;20180;-44
2022/01/15 13:12:07;;;;;;;2.72;1.55;;;;;;;;;;5052879;28;20199;-44
2022/01/15 13:14:43;;;;;;;2.30;1.27;;;;;;;;;;5055480;28;20194;-44
2022/01/15 13:17:22;;;;;;;1.58;1.20;;;;;;;;;;5043971;28;21637;-44
2022/01/15 13:19:48;;;;;;;2.00;1.23;;;;;;;;;;5050659;28;20185;-44
2022/01/15 13:22:18;;;;;;;1.80;1.20;;;;;;;;;;5048578;28;20214;-44
2022/01/15 13:24:44;;;;;;;3.28;2.08;;;;;;;;;;5053713;28;20197;-44
2022/01/15 13:27:10;;;;;;;2.65;2.00;;;;;;;;;;5053123;28;20266;-44
2022/01/15 13:29:37;;;;;;;8.93;2.85;;;;;;;;;;5050427;28;20282;-44
2022/01/15 13:32:06;;;;;;;6.38;2.90;;;;;;;;;;5053578;28;20197;-44
2022/01/15 13:34:34;;;;;;;4.88;2.90;;;;;;;;;;5053798;28;20203;-44
2022/01/15 13:37:08;;;;;;;2.95;2.53;;;;;;;;;;5051877;28;20190;-44
2022/01/15 13:39:35;;;;;;;6.65;3.10;;;;;;;;;;5055451;28;20172;-44
2022/01/15 13:42:01;;;;;;;4.80;2.55;;;;;;;;;;5043746;28;20558;-44
2022/01/15 13:44:31;;;;;;;5.30;2.65;;;;;;;;;;5046303;28;20213;-44
2022/01/15 13:47:06;;;;;;;6.40;2.45;;;;;;;;;;5047918;28;20245;-44
2022/01/15 13:53:04;;;;;;;5.10;2.03;;;;;;;;;;5050345;28;20203;-44
2022/01/15 13:55:13;;;;;;;7.47;2.70;;;;;;;;;;5053024;28;20182;-44
2022/01/15 13:57:40;;;;;;;5.20;2.55;;;;;;;;;;5051561;28;20206;-44
2022/01/15 14:00:13;;;;;;;4.97;2.28;;;;;;;;;;5049710;28;20187;-44
2022/01/15 14:02:40;;;;;;;5.95;2.00;;;;;;;;;;5040539;28;20614;-44
2022/01/15 14:05:13;;;;;;;5.78;2.25;;;;;;;;;;5042687;28;20303;-44
2022/01/15 14:07:39;;;;;;;4.28;2.15;;;;;;;;;;5048204;28;20266;-44
2022/01/15 14:10:18;;;;;;;3.67;2.47;;;;;;;;;;5037306;28;20191;-44
2022/01/15 14:12:45;;;;;;;2.45;2.10;;;;;;;;;;5042646;28;20191;-44
2022/01/15 14:15:15;;;;;;;3.53;2.03;;;;;;;;;;5046372;28;20205;-45
2022/01/15 14:17:45;;;;;;;4.22;1.77;;;;;;;;;;5051923;28;20190;-45
2022/01/15 14:22:44;;;;;;;2.45;1.88;;;;;;;;;;5045478;28;20455;-45
2022/01/15 14:25:13;;;;;;;2.72;1.85;;;;;;;;;;5047653;28;20199;-45
2022/01/15 14:27:39;;;;;;;9.77;1.80;;;;;;;;;;5051905;28;20187;-45
2022/01/15 14:30:05;;;;;;;2.15;1.80;;;;;;;;;;5052228;28;20183;-44
2022/01/15 14:32:32;;;;;;;2.53;1.70;;;;;;;;;;5048602;28;20185;-44
2022/01/15 14:34:58;;;;;;;6.78;2.17;;;;;;;;;;5052133;28;20262;-44
2022/01/15 14:37:25;;;;;;;2.63;2.10;;;;;;;;;;5051419;28;20175;-44
2022/01/15 14:39:53;;;;;;;2.65;1.80;;;;;;;;;;5036512;28;20180;-44
2022/01/15 14:42:19;;;;;;;6.78;2.00;;;;;;;;;;5046247;28;20175;-44
2022/01/15 14:44:45;;;;;;;3.67;1.90;;;;;;;;;;5044813;28;20595;-44
2022/01/15 14:47:11;;;;;;;2.35;1.48;;;;;;;;;;5044467;28;20187;-44
2022/01/15 14:49:37;;;;;;;2.65;1.75;;;;;;;;;;5044342;28;20175;-44
2022/01/15 14:52:03;;;;;;;2.83;1.98;;;;;;;;;;5049305;28;20516;-44
2022/01/15 14:54:29;;;;;;;3.40;1.98;;;;;;;;;;5037621;28;20258;-44
2022/01/15 14:56:55;;;;;;;5.63;2.10;;;;;;;;;;5042047;28;20179;-44
2022/01/15 14:59:21;;;;;;;8.23;2.00;;;;;;;;;;5050123;28;20442;-44
2022/01/15 15:01:47;;;;;;;3.60;2.10;;;;;;;;;;5040995;28;20222;-44
2022/01/15 15:04:13;;;;;;;3.30;2.08;;;;;;;;;;5039958;28;20253;-44
2022/01/15 15:06:39;;;;;;;4.30;1.95;;;;;;;;;;5046021;28;20179;-45
2022/01/15 15:09:06;;;;;;;2.00;1.60;;;;;;;;;;5038621;28;20567;-45
2022/01/15 15:11:33;;;;;;;5.22;2.28;;;;;;;;;;5048308;28;20596;-45
2022/01/15 15:13:59;;;;;;;3.15;1.98;;;;;;;;;;5037244;28;20202;-45